Terminal Aerodrome Forecast
Issued by NWS Omaha/Valley, NE

Home | Current Version | Previous Version | Text Only | Print | Product List | Glossary On
Versions: 1 2 3 4 5 6 7 8 9 10 11 12 13 14 15 16 17 18 19 20 21 22 23 24 25 26 27 28 29 30 31 32 33 34 35 36 37
000
FTUS43 KOAX 291122
TAFOFK
TAF
KOFK 291122Z 2912/3012 04009KT 4SM -SN BR SCT010 OVC025
      TEMPO 2912/2914 2SM -SN BR OVC010
     FM291400 02014G20KT 5SM -SN BR OVC025
      TEMPO 2914/2918 3SM -SN BR OVC010
     FM292200 36016KT P6SM OVC035
     FM300400 34012KT P6SM OVC090=

USA.gov is the U.S. government's official web portal to all federal, state and local government web resources and services.